sensor_id;sensor_type;location;lat;lon;timestamp;P1;durP1;ratioP1;P2;durP2;ratioP2
15708;SDS011;7954;51.914;8.420;2023-02-22T00:02:02;25.37;;;18.87;;
15708;SDS011;7954;51.914;8.420;2023-02-22T00:04:53;22.23;;;16.07;;
15708;SDS011;7954;51.914;8.420;2023-02-22T00:07:21;18.83;;;15.53;;
15708;SDS011;7954;51.914;8.420;2023-02-22T00:09:49;19.93;;;16.30;;
15708;SDS011;7954;51.914;8.420;2023-02-22T00:12:16;17.93;;;13.97;;
15708;SDS011;7954;51.914;8.420;2023-02-22T00:14:45;21.10;;;15.77;;
15708;SDS011;7954;51.914;8.420;2023-02-22T00:17:13;20.80;;;16.00;;
15708;SDS011;7954;51.914;8.420;2023-02-22T00:19:47;21.50;;;15.13;;
15708;SDS011;7954;51.914;8.420;2023-02-22T00:22:16;17.57;;;14.30;;
15708;SDS011;7954;51.914;8.420;2023-02-22T00:24:46;20.73;;;16.50;;
15708;SDS011;7954;51.914;8.420;2023-02-22T00:27:16;18.80;;;14.40;;
15708;SDS011;7954;51.914;8.420;2023-02-22T00:29:44;20.20;;;15.13;;
15708;SDS011;7954;51.914;8.420;2023-02-22T00:32:13;20.03;;;15.37;;
15708;SDS011;7954;51.914;8.420;2023-02-22T00:34:42;21.93;;;16.63;;
15708;SDS011;7954;51.914;8.420;2023-02-22T00:37:10;19.57;;;15.03;;
15708;SDS011;7954;51.914;8.420;2023-02-22T00:39:39;24.90;;;16.33;;
15708;SDS011;7954;51.914;8.420;2023-02-22T00:42:08;21.60;;;14.80;;
15708;SDS011;7954;51.914;8.420;2023-02-22T00:44:36;22.63;;;15.37;;
15708;SDS011;7954;51.914;8.420;2023-02-22T00:47:04;26.27;;;15.60;;
15708;SDS011;7954;51.914;8.420;2023-02-22T00:49:33;22.70;;;14.30;;
15708;SDS011;7954;51.914;8.420;2023-02-22T00:52:02;17.10;;;13.37;;
15708;SDS011;7954;51.914;8.420;2023-02-22T00:54:31;27.10;;;14.70;;
15708;SDS011;7954;51.914;8.420;2023-02-22T00:57:00;23.10;;;14.03;;
15708;SDS011;7954;51.914;8.420;2023-02-22T00:59:28;23.23;;;13.67;;
15708;SDS011;7954;51.914;8.420;2023-02-22T01:01:57;18.83;;;13.27;;
15708;SDS011;7954;51.914;8.420;2023-02-22T01:04:25;16.27;;;12.23;;
15708;SDS011;7954;51.914;8.420;2023-02-22T01:06:53;25.03;;;13.53;;
15708;SDS011;7954;51.914;8.420;2023-02-22T01:09:22;17.33;;;12.20;;
15708;SDS011;7954;51.914;8.420;2023-02-22T01:11:51;20.10;;;12.60;;
15708;SDS011;7954;51.914;8.420;2023-02-22T01:14:23;25.80;;;13.50;;
15708;SDS011;7954;51.914;8.420;2023-02-22T01:16:53;21.83;;;12.77;;
15708;SDS011;7954;51.914;8.420;2023-02-22T01:19:22;28.67;;;13.90;;
15708;SDS011;7954;51.914;8.420;2023-02-22T01:21:50;23.53;;;12.17;;
15708;SDS011;7954;51.914;8.420;2023-02-22T01:24:20;25.03;;;12.90;;
15708;SDS011;7954;51.914;8.420;2023-02-22T01:26:50;25.57;;;12.97;;
15708;SDS011;7954;51.914;8.420;2023-02-22T01:29:19;14.60;;;10.03;;
15708;SDS011;7954;51.914;8.420;2023-02-22T01:31:52;17.23;;;10.67;;
15708;SDS011;7954;51.914;8.420;2023-02-22T01:34:22;28.07;;;12.53;;
15708;SDS011;7954;51.914;8.420;2023-02-22T01:36:51;17.27;;;10.97;;
15708;SDS011;7954;51.914;8.420;2023-02-22T01:39:19;14.47;;;9.33;;
15708;SDS011;7954;51.914;8.420;2023-02-22T01:41:47;19.90;;;11.23;;
15708;SDS011;7954;51.914;8.420;2023-02-22T01:44:19;19.97;;;10.40;;
15708;SDS011;7954;51.914;8.420;2023-02-22T01:46:53;20.43;;;11.43;;
15708;SDS011;7954;51.914;8.420;2023-02-22T01:49:22;16.67;;;9.57;;
15708;SDS011;7954;51.914;8.420;2023-02-22T01:51:52;15.43;;;9.87;;
15708;SDS011;7954;51.914;8.420;2023-02-22T01:54:24;18.67;;;9.97;;
15708;SDS011;7954;51.914;8.420;2023-02-22T01:57:03;20.30;;;10.73;;
15708;SDS011;7954;51.914;8.420;2023-02-22T01:59:35;16.67;;;10.93;;
15708;SDS011;7954;51.914;8.420;2023-02-22T02:02:08;21.80;;;11.40;;
15708;SDS011;7954;51.914;8.420;2023-02-22T02:04:37;19.50;;;10.37;;
15708;SDS011;7954;51.914;8.420;2023-02-22T02:07:08;20.60;;;10.83;;
15708;SDS011;7954;51.914;8.420;2023-02-22T02:09:42;20.60;;;10.70;;
15708;SDS011;7954;51.914;8.420;2023-02-22T02:12:17;15.33;;;8.93;;
15708;SDS011;7954;51.914;8.420;2023-02-22T02:14:50;13.23;;;9.10;;
15708;SDS011;7954;51.914;8.420;2023-02-22T02:17:20;16.27;;;9.57;;
15708;SDS011;7954;51.914;8.420;2023-02-22T02:19:51;13.10;;;8.83;;
15708;SDS011;7954;51.914;8.420;2023-02-22T02:22:36;18.40;;;10.47;;
15708;SDS011;7954;51.914;8.420;2023-02-22T02:28:37;17.83;;;10.00;;
15708;SDS011;7954;51.914;8.420;2023-02-22T02:34:21;23.33;;;11.10;;
15708;SDS011;7954;51.914;8.420;2023-02-22T02:36:56;20.13;;;10.77;;
15708;SDS011;7954;51.914;8.420;2023-02-22T02:39:32;19.37;;;10.87;;
15708;SDS011;7954;51.914;8.420;2023-02-22T02:42:06;14.37;;;9.30;;
15708;SDS011;7954;51.914;8.420;2023-02-22T02:44:38;22.60;;;11.50;;
15708;SDS011;7954;51.914;8.420;2023-02-22T02:47:16;14.90;;;9.63;;
15708;SDS011;7954;51.914;8.420;2023-02-22T02:49:49;18.23;;;10.20;;
15708;SDS011;7954;51.914;8.420;2023-02-22T02:52:22;19.30;;;10.57;;
15708;SDS011;7954;51.914;8.420;2023-02-22T02:54:52;25.43;;;11.87;;
15708;SDS011;7954;51.914;8.420;2023-02-22T02:57:24;19.73;;;10.70;;
15708;SDS011;7954;51.914;8.420;2023-02-22T02:59:53;22.17;;;10.93;;
15708;SDS011;7954;51.914;8.420;2023-02-22T03:02:29;16.07;;;10.00;;
15708;SDS011;7954;51.914;8.420;2023-02-22T03:05:14;18.33;;;10.40;;
15708;SDS011;7954;51.914;8.420;2023-02-22T03:07:53;21.73;;;10.67;;
15708;SDS011;7954;51.914;8.420;2023-02-22T03:10:35;14.33;;;8.63;;
15708;SDS011;7954;51.914;8.420;2023-02-22T03:13:13;25.67;;;10.90;;
15708;SDS011;7954;51.914;8.420;2023-02-22T03:15:49;19.43;;;10.07;;
15708;SDS011;7954;51.914;8.420;2023-02-22T03:18:24;21.23;;;9.83;;
15708;SDS011;7954;51.914;8.420;2023-02-22T03:20:57;19.17;;;10.57;;
15708;SDS011;7954;51.914;8.420;2023-02-22T03:23:32;17.93;;;9.77;;
15708;SDS011;7954;51.914;8.420;2023-02-22T03:26:06;14.43;;;8.50;;
15708;SDS011;7954;51.914;8.420;2023-02-22T03:28:37;14.13;;;8.87;;
15708;SDS011;7954;51.914;8.420;2023-02-22T03:31:08;15.00;;;9.87;;
15708;SDS011;7954;51.914;8.420;2023-02-22T03:33:40;22.60;;;9.93;;
15708;SDS011;7954;51.914;8.420;2023-02-22T03:36:12;14.50;;;9.53;;
15708;SDS011;7954;51.914;8.420;2023-02-22T03:38:44;16.37;;;9.13;;
15708;SDS011;7954;51.914;8.420;2023-02-22T03:41:16;24.23;;;10.97;;
15708;SDS011;7954;51.914;8.420;2023-02-22T03:43:49;18.07;;;9.63;;
15708;SDS011;7954;51.914;8.420;2023-02-22T03:46:22;22.03;;;9.97;;
15708;SDS011;7954;51.914;8.420;2023-02-22T03:48:52;15.03;;;9.23;;
15708;SDS011;7954;51.914;8.420;2023-02-22T03:51:26;15.10;;;9.90;;
15708;SDS011;7954;51.914;8.420;2023-02-22T03:53:55;17.10;;;9.70;;
15708;SDS011;7954;51.914;8.420;2023-02-22T03:56:24;13.07;;;9.53;;
15708;SDS011;7954;51.914;8.420;2023-02-22T03:59:01;18.73;;;10.00;;
15708;SDS011;7954;51.914;8.420;2023-02-22T04:01:31;13.67;;;8.87;;
15708;SDS011;7954;51.914;8.420;2023-02-22T04:04:00;18.23;;;9.63;;
15708;SDS011;7954;51.914;8.420;2023-02-22T04:06:30;13.93;;;9.27;;
15708;SDS011;7954;51.914;8.420;2023-02-22T04:08:58;17.17;;;9.20;;
15708;SDS011;7954;51.914;8.420;2023-02-22T04:11:26;19.23;;;10.10;;
15708;SDS011;7954;51.914;8.420;2023-02-22T04:13:54;11.67;;;8.67;;
15708;SDS011;7954;51.914;8.420;2023-02-22T04:16:23;15.43;;;9.60;;
15708;SDS011;7954;51.914;8.420;2023-02-22T04:18:51;15.00;;;9.00;;
15708;SDS011;7954;51.914;8.420;2023-02-22T04:21:21;18.20;;;9.87;;
15708;SDS011;7954;51.914;8.420;2023-02-22T04:23:49;12.67;;;8.73;;
15708;SDS011;7954;51.914;8.420;2023-02-22T04:26:17;17.10;;;8.90;;
15708;SDS011;7954;51.914;8.420;2023-02-22T04:28:45;13.80;;;8.33;;
15708;SDS011;7954;51.914;8.420;2023-02-22T04:31:13;17.13;;;10.53;;
15708;SDS011;7954;51.914;8.420;2023-02-22T04:33:42;24.20;;;14.00;;
15708;SDS011;7954;51.914;8.420;2023-02-22T04:36:10;21.80;;;13.40;;
15708;SDS011;7954;51.914;8.420;2023-02-22T04:38:42;30.07;;;14.77;;
15708;SDS011;7954;51.914;8.420;2023-02-22T04:41:10;18.53;;;11.70;;
15708;SDS011;7954;51.914;8.420;2023-02-22T04:43:38;30.37;;;12.07;;
15708;SDS011;7954;51.914;8.420;2023-02-22T04:46:06;14.47;;;10.10;;
15708;SDS011;7954;51.914;8.420;2023-02-22T04:48:36;18.30;;;11.70;;
15708;SDS011;7954;51.914;8.420;2023-02-22T04:51:04;37.93;;;17.37;;
15708;SDS011;7954;51.914;8.420;2023-02-22T04:53:32;34.70;;;14.27;;
15708;SDS011;7954;51.914;8.420;2023-02-22T04:56:01;20.87;;;14.40;;
15708;SDS011;7954;51.914;8.420;2023-02-22T04:58:29;18.60;;;11.97;;
15708;SDS011;7954;51.914;8.420;2023-02-22T05:00:57;30.43;;;14.97;;
15708;SDS011;7954;51.914;8.420;2023-02-22T05:03:26;13.57;;;10.10;;
15708;SDS011;7954;51.914;8.420;2023-02-22T05:05:53;15.03;;;9.00;;
15708;SDS011;7954;51.914;8.420;2023-02-22T05:08:22;14.57;;;8.60;;
15708;SDS011;7954;51.914;8.420;2023-02-22T05:10:49;14.37;;;9.67;;
15708;SDS011;7954;51.914;8.420;2023-02-22T05:13:20;24.93;;;9.30;;
15708;SDS011;7954;51.914;8.420;2023-02-22T05:15:48;13.33;;;8.70;;
15708;SDS011;7954;51.914;8.420;2023-02-22T05:18:16;21.40;;;13.20;;
15708;SDS011;7954;51.914;8.420;2023-02-22T05:20:44;17.37;;;13.03;;
15708;SDS011;7954;51.914;8.420;2023-02-22T05:23:11;23.77;;;15.50;;
15708;SDS011;7954;51.914;8.420;2023-02-22T05:25:39;23.73;;;14.53;;
15708;SDS011;7954;51.914;8.420;2023-02-22T05:28:09;16.20;;;10.97;;
15708;SDS011;7954;51.914;8.420;2023-02-22T05:30:40;17.03;;;11.80;;
15708;SDS011;7954;51.914;8.420;2023-02-22T05:33:08;20.53;;;11.60;;
15708;SDS011;7954;51.914;8.420;2023-02-22T05:35:38;19.87;;;11.73;;
15708;SDS011;7954;51.914;8.420;2023-02-22T05:38:06;20.73;;;12.47;;
15708;SDS011;7954;51.914;8.420;2023-02-22T05:40:34;26.63;;;12.90;;
15708;SDS011;7954;51.914;8.420;2023-02-22T05:43:02;16.73;;;11.07;;
15708;SDS011;7954;51.914;8.420;2023-02-22T05:45:30;17.30;;;11.80;;
15708;SDS011;7954;51.914;8.420;2023-02-22T05:47:59;19.03;;;13.63;;
15708;SDS011;7954;51.914;8.420;2023-02-22T05:50:28;33.40;;;18.40;;
15708;SDS011;7954;51.914;8.420;2023-02-22T05:52:57;36.73;;;17.40;;
15708;SDS011;7954;51.914;8.420;2023-02-22T05:55:25;23.50;;;14.50;;
15708;SDS011;7954;51.914;8.420;2023-02-22T05:57:53;33.90;;;15.83;;
15708;SDS011;7954;51.914;8.420;2023-02-22T06:00:22;31.43;;;14.87;;
15708;SDS011;7954;51.914;8.420;2023-02-22T06:02:52;26.93;;;14.30;;
15708;SDS011;7954;51.914;8.420;2023-02-22T06:05:23;23.87;;;13.77;;
15708;SDS011;7954;51.914;8.420;2023-02-22T06:07:51;30.47;;;15.03;;
15708;SDS011;7954;51.914;8.420;2023-02-22T06:10:19;25.50;;;15.27;;
15708;SDS011;7954;51.914;8.420;2023-02-22T06:12:48;29.63;;;16.90;;
15708;SDS011;7954;51.914;8.420;2023-02-22T06:15:17;20.40;;;14.60;;
15708;SDS011;7954;51.914;8.420;2023-02-22T06:17:46;25.67;;;14.93;;
15708;SDS011;7954;51.914;8.420;2023-02-22T06:20:15;23.00;;;14.17;;
15708;SDS011;7954;51.914;8.420;2023-02-22T06:22:48;30.83;;;15.77;;
15708;SDS011;7954;51.914;8.420;2023-02-22T06:25:17;20.00;;;13.40;;
15708;SDS011;7954;51.914;8.420;2023-02-22T06:27:47;26.63;;;15.10;;
15708;SDS011;7954;51.914;8.420;2023-02-22T06:30:17;37.53;;;16.73;;
15708;SDS011;7954;51.914;8.420;2023-02-22T06:32:46;48.50;;;19.13;;
15708;SDS011;7954;51.914;8.420;2023-02-22T06:35:14;25.27;;;15.17;;
15708;SDS011;7954;51.914;8.420;2023-02-22T06:37:43;29.30;;;15.27;;
15708;SDS011;7954;51.914;8.420;2023-02-22T06:40:14;31.73;;;15.30;;
15708;SDS011;7954;51.914;8.420;2023-02-22T06:42:42;25.13;;;14.17;;
15708;SDS011;7954;51.914;8.420;2023-02-22T06:45:11;36.73;;;17.53;;
15708;SDS011;7954;51.914;8.420;2023-02-22T06:47:39;26.07;;;15.50;;
15708;SDS011;7954;51.914;8.420;2023-02-22T06:50:09;22.33;;;14.77;;
15708;SDS011;7954;51.914;8.420;2023-02-22T06:52:45;22.57;;;13.77;;
15708;SDS011;7954;51.914;8.420;2023-02-22T06:55:19;30.37;;;15.87;;
15708;SDS011;7954;51.914;8.420;2023-02-22T06:57:48;45.53;;;17.13;;
15708;SDS011;7954;51.914;8.420;2023-02-22T07:00:17;24.37;;;14.73;;
15708;SDS011;7954;51.914;8.420;2023-02-22T07:02:46;31.83;;;17.03;;
15708;SDS011;7954;51.914;8.420;2023-02-22T07:05:15;24.20;;;15.20;;
15708;SDS011;7954;51.914;8.420;2023-02-22T07:07:44;32.93;;;17.13;;
15708;SDS011;7954;51.914;8.420;2023-02-22T07:10:17;28.40;;;16.47;;
15708;SDS011;7954;51.914;8.420;2023-02-22T07:12:49;32.57;;;16.87;;
15708;SDS011;7954;51.914;8.420;2023-02-22T07:15:18;28.53;;;16.87;;
15708;SDS011;7954;51.914;8.420;2023-02-22T07:17:49;44.13;;;17.83;;
15708;SDS011;7954;51.914;8.420;2023-02-22T07:20:19;27.93;;;16.03;;
15708;SDS011;7954;51.914;8.420;2023-02-22T07:22:49;30.47;;;17.33;;
15708;SDS011;7954;51.914;8.420;2023-02-22T07:25:20;47.37;;;20.93;;
15708;SDS011;7954;51.914;8.420;2023-02-22T07:27:49;21.97;;;15.50;;
15708;SDS011;7954;51.914;8.420;2023-02-22T07:30:19;39.37;;;18.23;;
15708;SDS011;7954;51.914;8.420;2023-02-22T07:32:51;41.10;;;21.43;;
15708;SDS011;7954;51.914;8.420;2023-02-22T07:35:21;25.63;;;16.77;;
15708;SDS011;7954;51.914;8.420;2023-02-22T07:37:50;46.40;;;20.10;;
15708;SDS011;7954;51.914;8.420;2023-02-22T07:40:22;29.13;;;17.00;;
15708;SDS011;7954;51.914;8.420;2023-02-22T07:42:51;31.27;;;17.60;;
15708;SDS011;7954;51.914;8.420;2023-02-22T07:45:21;33.63;;;17.40;;
15708;SDS011;7954;51.914;8.420;2023-02-22T07:47:51;28.33;;;16.00;;
15708;SDS011;7954;51.914;8.420;2023-02-22T07:50:21;27.73;;;17.03;;
15708;SDS011;7954;51.914;8.420;2023-02-22T07:52:51;31.50;;;18.57;;
15708;SDS011;7954;51.914;8.420;2023-02-22T07:55:22;28.10;;;17.63;;
15708;SDS011;7954;51.914;8.420;2023-02-22T07:57:54;35.83;;;17.43;;
15708;SDS011;7954;51.914;8.420;2023-02-22T08:00:25;27.37;;;17.63;;
15708;SDS011;7954;51.914;8.420;2023-02-22T08:02:54;49.77;;;19.93;;
15708;SDS011;7954;51.914;8.420;2023-02-22T08:05:22;29.30;;;18.23;;
15708;SDS011;7954;51.914;8.420;2023-02-22T08:07:52;33.03;;;18.87;;
15708;SDS011;7954;51.914;8.420;2023-02-22T08:10:21;42.13;;;22.03;;
15708;SDS011;7954;51.914;8.420;2023-02-22T08:12:52;34.17;;;18.23;;
15708;SDS011;7954;51.914;8.420;2023-02-22T08:15:22;26.37;;;17.63;;
15708;SDS011;7954;51.914;8.420;2023-02-22T08:17:53;29.80;;;17.90;;
15708;SDS011;7954;51.914;8.420;2023-02-22T08:20:22;24.83;;;17.90;;
15708;SDS011;7954;51.914;8.420;2023-02-22T08:22:50;31.90;;;19.07;;
15708;SDS011;7954;51.914;8.420;2023-02-22T08:25:19;32.80;;;20.17;;
15708;SDS011;7954;51.914;8.420;2023-02-22T08:27:50;39.57;;;21.13;;
15708;SDS011;7954;51.914;8.420;2023-02-22T08:30:19;38.23;;;21.83;;
15708;SDS011;7954;51.914;8.420;2023-02-22T08:32:49;25.83;;;18.40;;
15708;SDS011;7954;51.914;8.420;2023-02-22T08:35:18;33.77;;;21.17;;
15708;SDS011;7954;51.914;8.420;2023-02-22T08:37:48;28.73;;;19.47;;
15708;SDS011;7954;51.914;8.420;2023-02-22T08:40:17;35.43;;;21.70;;
15708;SDS011;7954;51.914;8.420;2023-02-22T08:42:46;28.73;;;20.97;;
15708;SDS011;7954;51.914;8.420;2023-02-22T08:45:17;32.73;;;21.97;;
15708;SDS011;7954;51.914;8.420;2023-02-22T08:47:45;33.70;;;21.87;;
15708;SDS011;7954;51.914;8.420;2023-02-22T08:50:14;25.17;;;19.13;;
15708;SDS011;7954;51.914;8.420;2023-02-22T08:52:43;23.23;;;18.47;;
15708;SDS011;7954;51.914;8.420;2023-02-22T08:55:12;28.17;;;20.00;;
15708;SDS011;7954;51.914;8.420;2023-02-22T08:57:41;22.07;;;18.50;;
15708;SDS011;7954;51.914;8.420;2023-02-22T09:00:09;24.33;;;19.33;;
15708;SDS011;7954;51.914;8.420;2023-02-22T09:02:42;26.83;;;19.97;;
15708;SDS011;7954;51.914;8.420;2023-02-22T09:05:10;24.40;;;19.43;;
15708;SDS011;7954;51.914;8.420;2023-02-22T09:07:40;20.13;;;17.27;;
15708;SDS011;7954;51.914;8.420;2023-02-22T09:10:12;21.30;;;17.83;;
15708;SDS011;7954;51.914;8.420;2023-02-22T09:12:42;19.63;;;17.50;;
15708;SDS011;7954;51.914;8.420;2023-02-22T09:15:11;23.83;;;18.37;;
15708;SDS011;7954;51.914;8.420;2023-02-22T09:17:39;20.77;;;18.30;;
15708;SDS011;7954;51.914;8.420;2023-02-22T09:20:11;19.13;;;17.13;;
15708;SDS011;7954;51.914;8.420;2023-02-22T09:22:40;17.37;;;15.67;;
15708;SDS011;7954;51.914;8.420;2023-02-22T09:25:10;18.87;;;16.87;;
15708;SDS011;7954;51.914;8.420;2023-02-22T09:27:42;19.23;;;17.03;;
15708;SDS011;7954;51.914;8.420;2023-02-22T09:30:14;17.40;;;15.70;;
15708;SDS011;7954;51.914;8.420;2023-02-22T09:32:45;17.73;;;15.83;;
15708;SDS011;7954;51.914;8.420;2023-02-22T09:35:14;17.63;;;15.93;;
15708;SDS011;7954;51.914;8.420;2023-02-22T09:37:42;16.93;;;15.23;;
15708;SDS011;7954;51.914;8.420;2023-02-22T09:40:13;16.63;;;15.03;;
15708;SDS011;7954;51.914;8.420;2023-02-22T09:42:53;16.97;;;15.27;;
15708;SDS011;7954;51.914;8.420;2023-02-22T09:45:30;16.43;;;14.73;;
15708;SDS011;7954;51.914;8.420;2023-02-22T09:48:02;16.40;;;14.80;;
15708;SDS011;7954;51.914;8.420;2023-02-22T09:50:50;16.00;;;14.47;;
15708;SDS011;7954;51.914;8.420;2023-02-22T09:53:21;15.27;;;13.77;;
15708;SDS011;7954;51.914;8.420;2023-02-22T09:55:55;15.93;;;14.43;;
15708;SDS011;7954;51.914;8.420;2023-02-22T09:58:27;15.97;;;14.40;;
15708;SDS011;7954;51.914;8.420;2023-02-22T10:01:11;14.73;;;13.33;;
15708;SDS011;7954;51.914;8.420;2023-02-22T10:03:51;13.53;;;12.23;;
15708;SDS011;7954;51.914;8.420;2023-02-22T10:06:24;14.60;;;13.23;;
15708;SDS011;7954;51.914;8.420;2023-02-22T10:08:53;13.10;;;11.90;;
15708;SDS011;7954;51.914;8.420;2023-02-22T10:11:30;13.10;;;11.90;;
15708;SDS011;7954;51.914;8.420;2023-02-22T10:14:17;13.20;;;12.00;;
15708;SDS011;7954;51.914;8.420;2023-02-22T10:16:59;12.40;;;11.30;;
15708;SDS011;7954;51.914;8.420;2023-02-22T10:19:35;11.83;;;10.63;;
15708;SDS011;7954;51.914;8.420;2023-02-22T10:22:18;11.63;;;10.57;;
15708;SDS011;7954;51.914;8.420;2023-02-22T10:24:56;10.77;;;9.77;;
15708;SDS011;7954;51.914;8.420;2023-02-22T10:27:27;10.40;;;9.50;;
15708;SDS011;7954;51.914;8.420;2023-02-22T10:30:01;10.37;;;9.37;;
15708;SDS011;7954;51.914;8.420;2023-02-22T10:32:49;9.70;;;8.80;;
15708;SDS011;7954;51.914;8.420;2023-02-22T10:35:26;10.53;;;9.53;;
15708;SDS011;7954;51.914;8.420;2023-02-22T10:37:57;10.23;;;9.23;;
15708;SDS011;7954;51.914;8.420;2023-02-22T10:40:30;9.57;;;8.60;;
15708;SDS011;7954;51.914;8.420;2023-02-22T10:43:02;9.37;;;8.57;;
15708;SDS011;7954;51.914;8.420;2023-02-22T10:45:32;9.50;;;8.60;;
15708;SDS011;7954;51.914;8.420;2023-02-22T10:48:03;9.77;;;8.87;;
15708;SDS011;7954;51.914;8.420;2023-02-22T10:50:37;9.80;;;8.80;;
15708;SDS011;7954;51.914;8.420;2023-02-22T10:53:09;9.70;;;8.70;;
15708;SDS011;7954;51.914;8.420;2023-02-22T10:56:03;9.10;;;8.30;;
15708;SDS011;7954;51.914;8.420;2023-02-22T10:58:39;9.60;;;8.70;;
15708;SDS011;7954;51.914;8.420;2023-02-22T11:01:18;8.77;;;7.97;;
15708;SDS011;7954;51.914;8.420;2023-02-22T11:04:02;9.87;;;8.93;;
15708;SDS011;7954;51.914;8.420;2023-02-22T11:06:34;9.30;;;8.40;;
15708;SDS011;7954;51.914;8.420;2023-02-22T11:09:06;8.13;;;7.53;;
15708;SDS011;7954;51.914;8.420;2023-02-22T11:11:37;8.90;;;8.10;;
15708;SDS011;7954;51.914;8.420;2023-02-22T11:14:07;9.30;;;8.40;;
15708;SDS011;7954;51.914;8.420;2023-02-22T11:16:38;9.17;;;8.37;;
15708;SDS011;7954;51.914;8.420;2023-02-22T11:19:11;8.57;;;7.83;;
15708;SDS011;7954;51.914;8.420;2023-02-22T11:21:46;8.60;;;7.80;;
15708;SDS011;7954;51.914;8.420;2023-02-22T11:24:19;8.20;;;7.50;;
15708;SDS011;7954;51.914;8.420;2023-02-22T11:26:50;8.33;;;7.50;;
15708;SDS011;7954;51.914;8.420;2023-02-22T11:29:24;9.00;;;8.20;;
15708;SDS011;7954;51.914;8.420;2023-02-22T11:31:57;8.47;;;7.47;;
15708;SDS011;7954;51.914;8.420;2023-02-22T11:34:30;7.97;;;7.30;;
15708;SDS011;7954;51.914;8.420;2023-02-22T11:37:16;8.13;;;7.43;;
15708;SDS011;7954;51.914;8.420;2023-02-22T11:40:04;8.23;;;7.37;;
15708;SDS011;7954;51.914;8.420;2023-02-22T11:42:39;7.50;;;6.80;;
15708;SDS011;7954;51.914;8.420;2023-02-22T11:45:08;7.77;;;7.07;;
15708;SDS011;7954;51.914;8.420;2023-02-22T11:47:45;7.40;;;6.80;;
15708;SDS011;7954;51.914;8.420;2023-02-22T11:50:27;8.07;;;7.13;;
15708;SDS011;7954;51.914;8.420;2023-02-22T11:53:01;7.33;;;6.73;;
15708;SDS011;7954;51.914;8.420;2023-02-22T11:55:44;7.27;;;6.57;;
15708;SDS011;7954;51.914;8.420;2023-02-22T11:58:23;7.57;;;6.80;;
15708;SDS011;7954;51.914;8.420;2023-02-22T12:01:01;7.17;;;6.47;;
15708;SDS011;7954;51.914;8.420;2023-02-22T12:03:42;7.00;;;6.30;;
15708;SDS011;7954;51.914;8.420;2023-02-22T12:06:27;6.13;;;5.63;;
15708;SDS011;7954;51.914;8.420;2023-02-22T12:09:08;6.80;;;6.10;;
15708;SDS011;7954;51.914;8.420;2023-02-22T12:11:44;7.13;;;6.50;;
15708;SDS011;7954;51.914;8.420;2023-02-22T12:14:23;6.40;;;5.80;;
15708;SDS011;7954;51.914;8.420;2023-02-22T12:17:06;6.80;;;6.20;;
15708;SDS011;7954;51.914;8.420;2023-02-22T12:19:47;7.07;;;6.37;;
15708;SDS011;7954;51.914;8.420;2023-02-22T12:22:20;7.30;;;6.60;;
15708;SDS011;7954;51.914;8.420;2023-02-22T12:24:53;6.63;;;6.03;;
15708;SDS011;7954;51.914;8.420;2023-02-22T12:27:37;6.40;;;5.80;;
15708;SDS011;7954;51.914;8.420;2023-02-22T12:30:11;6.93;;;6.33;;
15708;SDS011;7954;51.914;8.420;2023-02-22T12:32:45;6.70;;;6.10;;
15708;SDS011;7954;51.914;8.420;2023-02-22T12:35:18;6.33;;;5.73;;
15708;SDS011;7954;51.914;8.420;2023-02-22T12:37:51;5.67;;;5.17;;
15708;SDS011;7954;51.914;8.420;2023-02-22T12:40:29;5.67;;;5.17;;
15708;SDS011;7954;51.914;8.420;2023-02-22T12:43:03;5.87;;;5.37;;
15708;SDS011;7954;51.914;8.420;2023-02-22T12:45:43;6.53;;;5.90;;
15708;SDS011;7954;51.914;8.420;2023-02-22T12:48:26;6.03;;;5.53;;
15708;SDS011;7954;51.914;8.420;2023-02-22T12:51:14;6.07;;;5.47;;
15708;SDS011;7954;51.914;8.420;2023-02-22T12:53:50;6.13;;;5.53;;
15708;SDS011;7954;51.914;8.420;2023-02-22T12:56:23;7.40;;;5.97;;
15708;SDS011;7954;51.914;8.420;2023-02-22T12:58:59;8.47;;;5.70;;
15708;SDS011;7954;51.914;8.420;2023-02-22T13:01:35;6.97;;;6.27;;
15708;SDS011;7954;51.914;8.420;2023-02-22T13:04:06;6.07;;;5.53;;
15708;SDS011;7954;51.914;8.420;2023-02-22T13:06:52;5.77;;;5.27;;
15708;SDS011;7954;51.914;8.420;2023-02-22T13:12:45;6.80;;;6.27;;
15708;SDS011;7954;51.914;8.420;2023-02-22T13:15:21;7.57;;;6.30;;
15708;SDS011;7954;51.914;8.420;2023-02-22T13:18:00;6.03;;;5.47;;
15708;SDS011;7954;51.914;8.420;2023-02-22T13:20:32;5.97;;;5.37;;
15708;SDS011;7954;51.914;8.420;2023-02-22T13:23:08;6.67;;;6.07;;
15708;SDS011;7954;51.914;8.420;2023-02-22T13:25:43;7.30;;;6.60;;
15708;SDS011;7954;51.914;8.420;2023-02-22T13:28:17;6.43;;;5.93;;
15708;SDS011;7954;51.914;8.420;2023-02-22T13:30:56;7.00;;;6.40;;
15708;SDS011;7954;51.914;8.420;2023-02-22T13:33:37;6.83;;;6.23;;
15708;SDS011;7954;51.914;8.420;2023-02-22T13:36:16;7.00;;;6.30;;
15708;SDS011;7954;51.914;8.420;2023-02-22T13:45:19;6.27;;;5.77;;
15708;SDS011;7954;51.914;8.420;2023-02-22T13:51:05;7.30;;;6.60;;
15708;SDS011;7954;51.914;8.420;2023-02-22T13:53:42;6.13;;;5.63;;
15708;SDS011;7954;51.914;8.420;2023-02-22T13:56:19;5.97;;;5.47;;
15708;SDS011;7954;51.914;8.420;2023-02-22T13:58:50;6.60;;;6.00;;
15708;SDS011;7954;51.914;8.420;2023-02-22T14:01:36;7.10;;;6.40;;
15708;SDS011;7954;51.914;8.420;2023-02-22T14:10:36;5.93;;;5.30;;
15708;SDS011;7954;51.914;8.420;2023-02-22T14:13:12;6.50;;;5.87;;
15708;SDS011;7954;51.914;8.420;2023-02-22T14:18:45;5.63;;;5.13;;
15708;SDS011;7954;51.914;8.420;2023-02-22T14:21:16;5.83;;;5.33;;
15708;SDS011;7954;51.914;8.420;2023-02-22T14:23:47;5.50;;;5.00;;
15708;SDS011;7954;51.914;8.420;2023-02-22T14:26:18;5.37;;;4.97;;
15708;SDS011;7954;51.914;8.420;2023-02-22T14:28:52;5.73;;;5.13;;
15708;SDS011;7954;51.914;8.420;2023-02-22T14:31:24;5.80;;;5.20;;
15708;SDS011;7954;51.914;8.420;2023-02-22T14:34:06;6.20;;;5.17;;
15708;SDS011;7954;51.914;8.420;2023-02-22T14:36:43;5.73;;;5.23;;
15708;SDS011;7954;51.914;8.420;2023-02-22T14:39:22;6.03;;;5.47;;
15708;SDS011;7954;51.914;8.420;2023-02-22T14:41:58;5.23;;;4.73;;
15708;SDS011;7954;51.914;8.420;2023-02-22T14:44:32;5.63;;;5.13;;
15708;SDS011;7954;51.914;8.420;2023-02-22T14:47:03;6.13;;;5.30;;
15708;SDS011;7954;51.914;8.420;2023-02-22T14:49:35;6.13;;;4.97;;
15708;SDS011;7954;51.914;8.420;2023-02-22T14:52:12;5.60;;;5.10;;
15708;SDS011;7954;51.914;8.420;2023-02-22T14:54:48;5.70;;;5.20;;
15708;SDS011;7954;51.914;8.420;2023-02-22T14:57:26;5.73;;;5.23;;
15708;SDS011;7954;51.914;8.420;2023-02-22T15:00:05;5.57;;;5.07;;
15708;SDS011;7954;51.914;8.420;2023-02-22T15:02:45;5.10;;;4.60;;
15708;SDS011;7954;51.914;8.420;2023-02-22T15:05:14;5.93;;;5.43;;
15708;SDS011;7954;51.914;8.420;2023-02-22T15:07:55;5.77;;;5.23;;
15708;SDS011;7954;51.914;8.420;2023-02-22T15:10:26;5.37;;;4.87;;
15708;SDS011;7954;51.914;8.420;2023-02-22T15:13:00;5.27;;;4.87;;
15708;SDS011;7954;51.914;8.420;2023-02-22T15:15:36;5.43;;;4.90;;
15708;SDS011;7954;51.914;8.420;2023-02-22T15:18:19;5.23;;;4.73;;
15708;SDS011;7954;51.914;8.420;2023-02-22T15:20:51;5.37;;;4.93;;
15708;SDS011;7954;51.914;8.420;2023-02-22T15:23:23;4.80;;;4.40;;
15708;SDS011;7954;51.914;8.420;2023-02-22T15:25:55;6.27;;;5.67;;
15708;SDS011;7954;51.914;8.420;2023-02-22T15:28:26;6.43;;;5.00;;
15708;SDS011;7954;51.914;8.420;2023-02-22T15:31:16;5.93;;;5.40;;
15708;SDS011;7954;51.914;8.420;2023-02-22T15:33:49;5.30;;;4.90;;
15708;SDS011;7954;51.914;8.420;2023-02-22T15:36:18;6.53;;;4.97;;
15708;SDS011;7954;51.914;8.420;2023-02-22T15:38:48;5.33;;;4.83;;
15708;SDS011;7954;51.914;8.420;2023-02-22T15:41:21;4.63;;;4.23;;
15708;SDS011;7954;51.914;8.420;2023-02-22T15:43:59;5.30;;;4.80;;